Time;durP1;ratioP1;P1;durP2;ratioP2;P2;SDS_P1;SDS_P2;PMS_P1;PMS_P2;Temp;Humidity;BMP_temperature;BMP_pressure;BME280_temperature;BME280_humidity;BME280_pressure;Samples;Min_cycle;Max_cycle;Signal;HPM_P1;HPM_P2
2022/07/14 00:00:28;;;;;;;2.53;0.50;;;;;;;14.48;100.00;102204.69;5010674;28;20510;-32
2022/07/14 00:02:56;;;;;;;4.05;0.98;;;;;;;14.46;100.00;102212.56;5011156;28;20057;-37
2022/07/14 00:05:25;;;;;;;1.75;0.50;;;;;;;14.45;100.00;102219.31;5012106;28;20060;-32
2022/07/14 00:07:53;;;;;;;2.20;0.65;;;;;;;14.42;100.00;102214.25;5011925;28;20112;-35
2022/07/14 00:10:21;;;;;;;2.00;0.50;;;;;;;14.40;100.00;102213.69;5010674;28;20061;-31
2022/07/14 00:12:49;;;;;;;1.90;0.60;;;;;;;14.36;100.00;102219.06;5011633;28;20053;-36
2022/07/14 00:15:16;;;;;;;4.63;0.80;;;;;;;14.32;100.00;102205.91;5012121;28;20133;-35
2022/07/14 00:17:44;;;;;;;2.17;0.77;;;;;;;14.28;100.00;102216.88;5010562;28;20475;-32
2022/07/14 00:20:12;;;;;;;1.98;0.60;;;;;;;14.25;100.00;102208.19;5011815;28;20056;-32
2022/07/14 00:22:42;;;;;;;3.25;0.70;;;;;;;14.24;100.00;102221.38;5011761;28;20149;-34
2022/07/14 00:25:10;;;;;;;2.15;0.50;;;;;;;14.19;100.00;102215.78;5011309;28;20046;-34
2022/07/14 00:27:37;;;;;;;2.30;0.70;;;;;;;14.19;100.00;102206.56;5011434;28;20050;-33
2022/07/14 00:30:07;;;;;;;3.33;0.60;;;;;;;14.18;100.00;102199.28;4999707;28;20081;-32
2022/07/14 00:32:35;;;;;;;2.00;0.60;;;;;;;14.14;100.00;102190.59;5010661;28;20128;-34
2022/07/14 00:35:05;;;;;;;2.33;0.65;;;;;;;14.12;100.00;102190.03;5012002;28;20182;-32
2022/07/14 00:37:33;;;;;;;2.38;0.60;;;;;;;14.10;100.00;102195.09;5011019;28;20096;-33
2022/07/14 00:40:04;;;;;;;1.75;0.50;;;;;;;14.05;100.00;102190.34;5011780;28;20049;-32
2022/07/14 00:42:34;;;;;;;1.67;0.50;;;;;;;14.02;100.00;102182.50;5011773;28;20130;-41
2022/07/14 00:45:05;;;;;;;1.52;0.50;;;;;;;13.99;100.00;102194.31;5009739;28;20114;-36
2022/07/14 00:47:33;;;;;;;1.23;0.50;;;;;;;13.97;100.00;102182.56;5025180;28;20053;-38
2022/07/14 00:50:02;;;;;;;2.75;0.73;;;;;;;13.96;100.00;102194.06;5010850;28;20034;-38
2022/07/14 00:52:38;;;;;;;1.75;0.50;;;;;;;13.93;100.00;102192.66;5012218;28;20373;-32
2022/07/14 00:55:09;;;;;;;1.98;0.45;;;;;;;13.92;100.00;102188.19;5013659;28;20112;-32
2022/07/14 00:57:37;;;;;;;2.67;0.50;;;;;;;13.90;100.00;102184.81;5015275;28;20145;-32
2022/07/14 01:00:08;;;;;;;1.58;0.52;;;;;;;13.87;100.00;102192.97;5014654;28;20060;-32
2022/07/14 01:02:36;;;;;;;1.65;0.50;;;;;;;13.84;100.00;102200.00;5015321;28;20531;-36
2022/07/14 01:05:05;;;;;;;2.25;0.50;;;;;;;13.79;100.00;102195.25;5010372;28;20049;-31
2022/07/14 01:07:33;;;;;;;1.33;0.43;;;;;;;13.78;100.00;102195.56;5014582;28;20436;-34
2022/07/14 01:10:01;;;;;;;1.02;0.40;;;;;;;13.76;100.00;102192.22;5013447;28;20125;-36
2022/07/14 01:12:31;;;;;;;1.80;0.38;;;;;;;13.73;100.00;102195.59;5015497;28;20049;-36
2022/07/14 01:14:59;;;;;;;1.50;0.50;;;;;;;13.70;100.00;102193.34;5002045;28;20050;-36
2022/07/14 01:17:27;;;;;;;2.15;0.50;;;;;;;13.66;100.00;102190.28;4995468;28;20054;-37
2022/07/14 01:19:55;;;;;;;1.83;0.55;;;;;;;13.63;100.00;102188.03;5010480;28;20800;-37
2022/07/14 01:22:24;;;;;;;1.80;0.60;;;;;;;13.61;100.00;102197.88;5013896;28;20056;-35
2022/07/14 01:24:52;;;;;;;1.67;0.60;;;;;;;13.58;100.00;102201.28;5014438;28;20049;-40
2022/07/14 01:27:20;;;;;;;1.20;0.50;;;;;;;13.55;100.00;102196.22;5009793;28;20101;-35
2022/07/14 01:29:48;;;;;;;1.27;0.50;;;;;;;13.53;100.00;102198.47;5007291;28;20046;-38
2022/07/14 01:32:16;;;;;;;2.67;0.70;;;;;;;13.52;100.00;102194.00;5013613;28;20046;-39
2022/07/14 01:34:44;;;;;;;1.95;0.60;;;;;;;13.49;100.00;102194.56;5012443;28;20124;-39
2022/07/14 01:37:12;;;;;;;1.58;0.50;;;;;;;13.45;100.00;102192.31;5005576;28;20105;-38
2022/07/14 01:39:41;;;;;;;1.70;0.60;;;;;;;13.42;100.00;102190.09;5001944;28;20133;-33
2022/07/14 01:42:09;;;;;;;2.95;0.60;;;;;;;13.39;100.00;102193.47;5014105;28;20062;-34
2022/07/14 01:44:37;;;;;;;2.40;0.80;;;;;;;13.37;100.00;102195.75;5009062;28;20042;-33
2022/07/14 01:47:05;;;;;;;2.40;0.63;;;;;;;13.34;100.00;102187.06;5014571;28;20125;-36
2022/07/14 01:49:34;;;;;;;2.30;0.68;;;;;;;13.30;100.00;102188.75;5013781;28;20048;-34
2022/07/14 01:52:06;;;;;;;2.63;0.60;;;;;;;13.27;100.00;102175.28;5012956;28;20046;-37
2022/07/14 01:54:37;;;;;;;1.88;0.65;;;;;;;13.23;100.00;102174.19;5029201;28;20056;-38
2022/07/14 01:57:07;;;;;;;1.67;0.60;;;;;;;13.20;100.00;102166.34;5013472;28;20276;-37
2022/07/14 01:59:36;;;;;;;2.42;0.52;;;;;;;13.16;100.00;102174.50;5029598;28;20058;-33
2022/07/14 02:02:04;;;;;;;2.22;0.75;;;;;;;13.13;100.00;102177.84;5011930;28;20046;-33
2022/07/14 02:04:32;;;;;;;2.08;0.73;;;;;;;13.10;100.00;102179.25;5013902;28;20579;-38
2022/07/14 02:07:00;;;;;;;1.98;0.43;;;;;;;13.07;100.00;102177.00;5013011;28;20080;-37
2022/07/14 02:12:43;;;;;;;1.98;0.52;;;;;;;13.02;100.00;102176.16;5012453;28;20064;-32
2022/07/14 02:15:12;;;;;;;1.50;0.50;;;;;;;13.00;100.00;102184.00;5014029;28;20065;-32
2022/07/14 02:17:41;;;;;;;1.90;0.60;;;;;;;12.98;100.00;102178.72;5011772;28;20104;-31
2022/07/14 02:20:10;;;;;;;2.72;0.60;;;;;;;12.96;100.00;102177.31;5012709;28;20049;-31
2022/07/14 02:22:38;;;;;;;2.40;0.50;;;;;;;12.94;100.00;102177.59;5013733;28;20060;-31
2022/07/14 02:25:07;;;;;;;1.90;0.60;;;;;;;12.90;100.00;102182.06;5013142;28;20100;-32
2022/07/14 02:27:35;;;;;;;1.15;0.50;;;;;;;12.88;100.00;102187.13;5022353;28;20057;-34
2022/07/14 02:30:06;;;;;;;2.28;0.60;;;;;;;12.88;100.00;102181.53;5011813;28;20085;-32
2022/07/14 02:32:33;;;;;;;2.72;0.80;;;;;;;12.86;100.00;102182.91;5013533;28;20061;-34
2022/07/14 02:35:01;;;;;;;2.38;0.60;;;;;;;12.85;100.00;102181.25;5009140;28;20544;-31
2022/07/14 02:37:29;;;;;;;2.20;0.60;;;;;;;12.84;100.00;102182.34;5007220;28;20096;-31
2022/07/14 02:39:57;;;;;;;1.58;0.60;;;;;;;12.81;100.00;102180.97;5012454;28;20104;-30
2022/07/14 02:42:25;;;;;;;0.93;0.43;;;;;;;12.78;100.00;102187.16;5012156;28;20084;-31
2022/07/14 02:44:53;;;;;;;1.48;0.57;;;;;;;12.74;100.00;102186.88;5011607;28;20045;-32
2022/07/14 02:47:23;;;;;;;1.60;0.40;;;;;;;12.72;100.00;102179.88;5011872;28;20042;-33
2022/07/14 02:49:51;;;;;;;1.80;0.50;;;;;;;12.70;100.00;102188.53;5012078;28;20058;-31
2022/07/14 02:52:18;;;;;;;2.50;0.70;;;;;;;12.67;100.00;102183.50;5012298;28;20046;-32
2022/07/14 02:54:49;;;;;;;1.58;0.60;;;;;;;12.64;100.00;102175.66;5011422;28;20104;-31
2022/07/14 02:57:18;;;;;;;1.50;0.60;;;;;;;12.63;100.00;102171.16;5010446;28;20514;-33
2022/07/14 02:59:46;;;;;;;2.42;0.80;;;;;;;12.63;100.00;102176.78;5010793;28;20115;-32
2022/07/14 03:02:14;;;;;;;2.00;0.80;;;;;;;12.61;100.00;102176.22;5011432;28;20117;-31
2022/07/14 03:04:43;;;;;;;1.85;0.60;;;;;;;12.62;100.00;102179.84;5016153;28;20111;-31
2022/07/14 03:07:11;;;;;;;1.70;0.57;;;;;;;12.64;100.00;102188.81;5012344;28;20510;-34
2022/07/14 03:09:39;;;;;;;3.22;0.57;;;;;;;12.64;100.00;102184.06;5012820;28;20514;-31
2022/07/14 03:12:07;;;;;;;2.03;0.70;;;;;;;12.64;100.00;102188.81;5012115;28;20049;-33
2022/07/14 03:14:39;;;;;;;3.10;0.85;;;;;;;12.64;100.00;102188.81;5010953;28;20074;-32
2022/07/14 03:17:07;;;;;;;2.55;0.60;;;;;;;12.65;100.00;102185.75;5011221;28;20112;-32
2022/07/14 03:19:35;;;;;;;2.40;0.90;;;;;;;12.65;100.00;102184.91;5023657;28;20060;-31
2022/07/14 03:22:05;;;;;;;2.08;0.70;;;;;;;12.65;100.00;102190.50;5007912;28;20514;-30
2022/07/14 03:24:34;;;;;;;2.00;0.80;;;;;;;12.61;100.00;102187.41;5020202;28;20042;-31
2022/07/14 03:27:04;;;;;;;2.28;0.70;;;;;;;12.59;100.00;102186.84;5011850;28;20069;-31
2022/07/14 03:29:33;;;;;;;2.72;0.65;;;;;;;12.58;100.00;102179.59;5010982;28;20073;-31
2022/07/14 03:32:00;;;;;;;2.63;0.70;;;;;;;12.58;100.00;102179.59;5012186;28;20459;-32
2022/07/14 03:34:31;;;;;;;2.60;0.50;;;;;;;12.59;100.00;102177.66;5008758;28;20107;-31
2022/07/14 03:37:01;;;;;;;2.28;0.57;;;;;;;12.56;100.00;102165.03;5015718;28;20069;-32
2022/07/14 03:39:40;;;;;;;2.00;0.60;;;;;;;12.56;100.00;102172.59;5000012;28;20484;-31
2022/07/14 03:42:07;;;;;;;2.90;0.73;;;;;;;12.55;100.00;102168.13;5004758;28;20042;-31
2022/07/14 03:44:36;;;;;;;2.25;0.70;;;;;;;12.55;100.00;102162.53;5002296;28;20054;-30
2022/07/14 03:47:04;;;;;;;2.15;0.75;;;;;;;12.55;100.00;102168.97;5003839;28;20052;-32
2022/07/14 03:49:32;;;;;;;2.67;0.80;;;;;;;12.56;100.00;102161.41;5001440;28;20108;-31
2022/07/14 03:52:01;;;;;;;2.08;0.60;;;;;;;12.55;100.00;102163.34;5001882;28;20104;-31
2022/07/14 03:54:29;;;;;;;3.22;0.80;;;;;;;12.56;100.00;102159.44;5009530;28;20471;-34
2022/07/14 03:56:59;;;;;;;2.00;0.90;;;;;;;12.58;100.00;102165.59;5023370;28;20136;-31
2022/07/14 03:59:28;;;;;;;1.77;0.60;;;;;;;12.57;100.00;102172.31;5010696;28;20052;-31
2022/07/14 04:01:56;;;;;;;3.13;0.60;;;;;;;12.58;100.00;102174.00;5011561;28;20125;-33
2022/07/14 04:04:24;;;;;;;2.22;0.60;;;;;;;12.58;100.00;102175.97;5006541;28;20522;-31
2022/07/14 04:06:52;;;;;;;2.55;0.70;;;;;;;12.56;100.00;102176.25;5023631;28;20053;-32
2022/07/14 04:09:20;;;;;;;8.23;1.23;;;;;;;12.56;100.00;102176.25;5005546;28;20050;-32
2022/07/14 04:11:52;;;;;;;2.70;0.90;;;;;;;12.56;100.00;102172.59;5003707;28;20050;-35
2022/07/14 04:14:23;;;;;;;1.73;0.70;;;;;;;12.57;100.00;102182.69;4997205;28;20586;-31
2022/07/14 04:16:52;;;;;;;1.80;0.60;;;;;;;12.56;100.00;102175.41;5005079;28;20056;-31
2022/07/14 04:19:21;;;;;;;1.30;0.57;;;;;;;12.57;100.00;102186.31;4993923;28;20495;-30
2022/07/14 04:21:49;;;;;;;2.10;0.60;;;;;;;12.58;100.00;102185.19;5010187;28;20383;-31
2022/07/14 04:24:18;;;;;;;2.05;0.68;;;;;;;12.59;100.00;102184.06;5009824;28;20046;-31
2022/07/14 04:26:46;;;;;;;2.20;0.70;;;;;;;12.61;100.00;102180.97;5015394;28;20069;-30
2022/07/14 04:29:14;;;;;;;2.72;0.60;;;;;;;12.63;100.00;102182.38;5011931;28;20068;-32
2022/07/14 04:31:43;;;;;;;2.47;0.70;;;;;;;12.66;100.00;102175.38;5009116;28;20058;-32
2022/07/14 04:34:16;;;;;;;3.15;0.65;;;;;;;12.68;100.00;102184.34;5010571;28;20189;-31
2022/07/14 04:36:44;;;;;;;2.30;0.70;;;;;;;12.72;100.00;102179.88;4997390;28;20067;-32
2022/07/14 04:39:12;;;;;;;4.25;0.80;;;;;;;12.80;100.00;102175.63;5006586;28;20046;-33
2022/07/14 04:41:43;;;;;;;2.58;0.70;;;;;;;12.87;100.00;102170.59;4999637;28;20050;-32
2022/07/14 04:44:11;;;;;;;3.25;0.60;;;;;;;12.96;100.00;102169.75;5004136;28;20081;-32
2022/07/14 04:46:44;;;;;;;2.38;0.63;;;;;;;13.06;100.00;102168.88;5000934;28;20038;-32
2022/07/14 04:52:05;;;;;;;5.82;0.82;;;;;;;13.23;100.00;102161.00;5009189;28;20048;-35
2022/07/14 04:55:02;;;;;;;3.38;0.77;;;;;;;13.36;100.00;102167.97;4987888;28;20128;-31
2022/07/14 04:57:39;;;;;;;4.25;0.70;;;;;;;13.48;100.00;102164.84;5001209;28;20058;-31
2022/07/14 05:00:12;;;;;;;2.70;0.60;;;;;;;13.60;100.00;102182.16;4991748;28;20455;-31
2022/07/14 05:02:41;;;;;;;2.90;0.80;;;;;;;13.71;100.00;102176.22;5024454;28;20054;-34
2022/07/14 05:05:09;;;;;;;4.55;0.70;;;;;;;13.83;100.00;102166.63;5011994;28;20081;-31
2022/07/14 05:07:38;;;;;;;2.00;0.65;;;;;;;13.94;100.00;102162.66;4997316;28;20045;-32
2022/07/14 05:10:09;;;;;;;3.05;0.60;;;;;;;14.02;100.00;102148.81;4989755;28;20046;-31
2022/07/14 05:12:38;;;;;;;3.97;0.70;;;;;;;14.09;100.00;102143.72;5003823;28;20438;-34
2022/07/14 05:15:07;;;;;;;3.33;0.60;;;;;;;14.16;100.00;102142.56;4996764;28;20054;-31
2022/07/14 05:17:35;;;;;;;2.33;0.60;;;;;;;14.23;100.00;102149.50;5002784;28;20526;-32
2022/07/14 05:20:10;;;;;;;3.05;0.60;;;;;;;14.30;100.00;102154.81;5008288;28;20045;-31
2022/07/14 05:22:40;;;;;;;5.82;0.60;;;;;;;14.36;100.00;102153.66;5008682;28;20070;-32
2022/07/14 05:25:12;;;;;;;1.98;0.60;;;;;;;14.41;100.00;102151.63;5008865;28;20514;-31
2022/07/14 05:27:41;;;;;;;2.67;0.70;;;;;;;14.48;100.00;102162.56;4999046;28;20077;-31
2022/07/14 05:30:16;;;;;;;3.83;0.70;;;;;;;14.55;100.00;102167.84;4996274;28;20055;-31
2022/07/14 05:32:44;;;;;;;4.10;0.68;;;;;;;14.63;100.00;102161.56;5008364;28;20146;-34
2022/07/14 05:35:13;;;;;;;4.15;0.77;;;;;;;14.71;100.00;102173.03;5000779;28;20057;-32
2022/07/14 05:37:41;;;;;;;5.10;0.70;;;;;;;14.79;100.00;102180.78;4996907;28;20085;-32
2022/07/14 05:40:10;;;;;;;5.15;0.77;;;;;;;14.89;100.00;102179.03;5016914;28;20924;-32
2022/07/14 05:42:38;;;;;;;4.15;0.90;;;;;;;14.97;100.00;102181.22;5024819;28;20136;-32
2022/07/14 05:45:08;;;;;;;3.83;0.80;;;;;;;15.04;100.00;102176.91;4998592;28;20045;-32
2022/07/14 05:47:36;;;;;;;3.58;0.68;;;;;;;15.11;100.00;102166.16;4998317;28;20083;-33
2022/07/14 05:50:04;;;;;;;4.32;0.75;;;;;;;15.19;100.00;102161.81;5015584;28;20498;-32
2022/07/14 05:52:33;;;;;;;4.32;0.85;;;;;;;15.29;100.00;102169.31;5028168;28;20450;-32
2022/07/14 05:55:02;;;;;;;3.08;0.60;;;;;;;15.35;100.00;102171.78;5012199;28;20080;-33
2022/07/14 05:57:31;;;;;;;4.95;0.75;;;;;;;15.47;100.00;102175.00;5012859;28;20046;-34
2022/07/14 06:00:10;;;;;;;2.78;0.70;;;;;;;15.60;100.00;102159.38;5013093;28;20054;-32
2022/07/14 06:02:49;;;;;;;2.70;0.75;;;;;;;15.71;100.00;102155.31;5012426;28;20053;-38
2022/07/14 06:05:26;;;;;;;3.92;0.65;;;;;;;15.81;100.00;102157.97;5012964;28;20057;-33
2022/07/14 06:07:56;;;;;;;2.40;0.63;;;;;;;15.94;100.00;102162.03;5012449;28;20419;-33
2022/07/14 06:10:23;;;;;;;5.05;0.70;;;;;;;16.02;100.00;102158.50;5012798;28;20140;-32
2022/07/14 06:12:54;;;;;;;4.75;0.60;;;;;;;16.13;100.00;102162.03;5012975;28;20430;-33
2022/07/14 06:15:24;;;;;;;2.88;0.70;;;;;;;16.24;100.00;102166.34;5011997;28;20050;-34
2022/07/14 06:17:53;;;;;;;3.55;0.70;;;;;;;16.33;100.00;102170.16;5012616;28;20046;-33
2022/07/14 06:20:22;;;;;;;3.33;0.70;;;;;;;16.46;100.00;102166.56;5025333;28;20081;-33
2022/07/14 06:22:51;;;;;;;3.33;0.50;;;;;;;16.60;100.00;102163.78;5009758;28;20431;-35
2022/07/14 06:25:20;;;;;;;6.32;1.63;;;;;;;16.75;100.00;102166.38;5012253;28;20046;-32
2022/07/14 06:27:49;;;;;;;4.45;0.60;;;;;;;16.92;100.00;102164.94;5016781;28;20070;-33
2022/07/14 06:30:17;;;;;;;3.75;0.57;;;;;;;17.11;100.00;102168.53;5001594;28;20388;-32
2022/07/14 06:32:45;;;;;;;3.83;0.63;;;;;;;17.29;100.00;102167.59;5006433;28;20050;-33
2022/07/14 06:35:16;;;;;;;3.22;0.60;;;;;;;17.42;100.00;102165.91;5012409;28;20052;-33
2022/07/14 06:37:44;;;;;;;3.20;0.80;;;;;;;17.67;100.00;102167.41;5008465;28;20050;-32
2022/07/14 06:40:16;;;;;;;2.65;0.50;;;;;;;17.98;100.00;102171.25;5005221;28;20101;-32
2022/07/14 06:42:48;;;;;;;4.03;0.90;;;;;;;18.34;100.00;102173.22;5009214;28;20057;-33
2022/07/14 06:45:35;;;;;;;3.67;0.60;;;;;;;18.53;100.00;102173.88;5008289;28;20107;-32
2022/07/14 06:48:03;;;;;;;2.92;0.60;;;;;;;18.74;100.00;102175.06;5012662;28;20049;-33
2022/07/14 06:50:32;;;;;;;3.70;0.65;;;;;;;19.25;100.00;102166.00;5010130;28;20132;-33
2022/07/14 06:53:00;;;;;;;3.03;0.60;;;;;;;19.89;100.00;102168.41;5013424;28;20126;-39
2022/07/14 06:55:28;;;;;;;3.97;1.27;;;;;;;20.66;100.00;102164.75;5012879;28;20497;-37
2022/07/14 06:57:57;;;;;;;2.53;0.63;;;;;;;21.40;98.25;102155.88;5012333;28;20052;-35
2022/07/14 07:00:28;;;;;;;2.17;0.60;;;;;;;22.24;94.70;102156.88;5013265;28;20073;-34
2022/07/14 07:02:57;;;;;;;2.33;0.52;;;;;;;23.03;88.80;102150.06;5013162;28;20108;-36
2022/07/14 07:08:10;;;;;;;2.83;0.43;;;;;;;23.64;80.18;102148.13;5011742;28;20132;-33
2022/07/14 07:10:41;;;;;;;2.58;0.70;;;;;;;23.83;78.32;102138.13;5012970;28;20487;-33
2022/07/14 07:13:10;;;;;;;2.60;0.60;;;;;;;24.04;76.63;102144.50;5009769;28;20434;-39
2022/07/14 07:15:38;;;;;;;3.03;0.43;;;;;;;24.39;74.91;102148.47;5012594;28;20566;-36
2022/07/14 07:18:08;;;;;;;2.53;0.50;;;;;;;24.95;72.18;102148.47;5012691;28;20045;-35
2022/07/14 07:20:37;;;;;;;2.70;0.60;;;;;;;25.55;67.94;102149.22;5011921;28;20065;-33
2022/07/14 07:23:04;;;;;;;3.88;0.68;;;;;;;25.96;65.76;102135.53;5012384;28;20145;-42
2022/07/14 07:25:33;;;;;;;2.15;0.40;;;;;;;26.27;64.35;102129.69;5011944;28;20128;-39
2022/07/14 07:28:00;;;;;;;1.30;0.30;;;;;;;26.57;61.62;102129.94;5012498;28;20050;-41
2022/07/14 07:30:30;;;;;;;1.73;0.50;;;;;;;26.81;58.80;102120.16;5012747;28;20057;-34
2022/07/14 07:32:58;;;;;;;2.15;0.47;;;;;;;26.97;58.33;102122.97;5011606;28;20050;-35
2022/07/14 07:35:26;;;;;;;1.48;0.45;;;;;;;27.12;57.41;102124.03;5012464;28;20358;-36
2022/07/14 07:37:54;;;;;;;2.67;0.50;;;;;;;27.28;56.36;102119.00;5012218;28;20128;-43
2022/07/14 07:40:21;;;;;;;3.60;0.55;;;;;;;27.52;55.57;102129.25;5012028;28;20078;-39
2022/07/14 07:42:49;;;;;;;2.13;0.57;;;;;;;27.74;54.20;102131.25;5012050;28;20125;-42
2022/07/14 07:45:17;;;;;;;3.33;0.52;;;;;;;27.91;52.42;102138.47;5012507;28;20049;-35
2022/07/14 07:47:46;;;;;;;2.10;0.50;;;;;;;28.00;52.29;102128.34;5011284;28;20124;-35
2022/07/14 07:50:16;;;;;;;1.35;0.30;;;;;;;28.29;51.44;102134.53;5012430;28;20106;-40
2022/07/14 07:52:44;;;;;;;3.05;0.70;;;;;;;28.65;50.34;102130.03;5012028;28;20038;-38
2022/07/14 07:55:13;;;;;;;2.28;0.40;;;;;;;28.90;48.31;102128.31;5011725;28;20084;-44
2022/07/14 07:57:53;;;;;;;2.35;0.45;;;;;;;28.84;47.68;102126.19;5005763;28;20076;-37
2022/07/14 08:00:21;;;;;;;2.88;0.40;;;;;;;28.71;47.80;102139.97;5012053;28;20112;-36
2022/07/14 08:02:53;;;;;;;1.63;0.40;;;;;;;28.63;47.66;102136.19;5010742;28;20491;-36
2022/07/14 08:05:24;;;;;;;2.47;0.57;;;;;;;28.53;47.85;102133.19;5002246;28;20448;-36
2022/07/14 08:08:12;;;;;;;1.88;0.40;;;;;;;28.30;48.74;102139.06;5010776;28;20053;-39
2022/07/14 08:10:40;;;;;;;2.47;0.60;;;;;;;28.04;49.13;102128.41;5012132;28;20054;-35
2022/07/14 08:13:09;;;;;;;2.35;0.50;;;;;;;27.68;48.92;102132.81;5011656;28;20052;-35
2022/07/14 08:15:37;;;;;;;2.42;0.40;;;;;;;27.39;50.03;102134.31;5008618;28;20057;-36
2022/07/14 08:18:07;;;;;;;2.55;0.50;;;;;;;27.13;50.11;102132.25;5011589;28;20049;-41
2022/07/14 08:20:35;;;;;;;3.33;0.60;;;;;;;26.90;50.45;102131.38;5011742;28;20094;-35
2022/07/14 08:23:03;;;;;;;2.15;0.38;;;;;;;26.71;51.19;102129.38;5010922;28;20144;-43
2022/07/14 08:25:32;;;;;;;1.95;0.40;;;;;;;26.54;51.62;102124.13;5008283;28;20046;-34
2022/07/14 08:28:00;;;;;;;2.13;0.40;;;;;;;26.37;52.15;102123.41;5011761;28;20050;-43
2022/07/14 08:30:28;;;;;;;1.58;0.40;;;;;;;26.27;51.90;102123.94;5009394;28;20125;-34
2022/07/14 08:32:56;;;;;;;3.33;0.40;;;;;;;26.18;51.95;102134.78;5011813;28;20077;-36
2022/07/14 08:35:26;;;;;;;2.05;0.68;;;;;;;26.17;51.96;102127.44;5011588;28;20104;-34
2022/07/14 08:37:55;;;;;;;2.30;0.40;;;;;;;26.12;52.60;102133.44;5010605;28;20056;-43
2022/07/14 08:40:25;;;;;;;3.65;0.50;;;;;;;26.03;51.70;102139.34;5011706;28;20136;-35
2022/07/14 08:42:55;;;;;;;2.63;0.57;;;;;;;25.90;51.99;102139.88;4992594;28;20104;-33
2022/07/14 08:45:25;;;;;;;2.08;0.45;;;;;;;25.77;52.57;102144.06;5006768;28;20060;-37
2022/07/14 08:47:55;;;;;;;3.35;0.50;;;;;;;25.63;52.23;102131.06;5011817;28;20490;-37
2022/07/14 08:50:26;;;;;;;1.50;0.30;;;;;;;25.47;52.98;102126.53;5025454;28;20387;-34
2022/07/14 08:52:54;;;;;;;1.53;0.40;;;;;;;25.35;53.47;102130.34;5012099;28;20057;-34
2022/07/14 08:55:22;;;;;;;2.20;0.57;;;;;;;25.28;54.57;102130.16;4997921;28;20078;-34
2022/07/14 08:57:50;;;;;;;1.75;0.60;;;;;;;25.20;54.67;102129.13;5010139;28;20145;-34
2022/07/14 09:00:19;;;;;;;1.67;0.30;;;;;;;25.15;55.24;102125.75;5011389;28;20060;-34
2022/07/14 09:02:50;;;;;;;1.70;0.40;;;;;;;25.13;54.97;102123.25;5011559;28;20112;-33
2022/07/14 09:05:41;;;;;;;1.88;0.30;;;;;;;25.17;55.23;102127.03;5010740;28;20065;-35
2022/07/14 09:08:12;;;;;;;2.58;0.30;;;;;;;25.29;54.77;102123.25;5011545;28;20108;-43
2022/07/14 09:10:40;;;;;;;4.15;0.55;;;;;;;25.37;53.47;102128.78;5011193;28;20125;-38
2022/07/14 09:13:30;;;;;;;2.15;0.47;;;;;;;25.40;53.56;102125.16;5012503;28;20058;-34
2022/07/14 09:16:14;;;;;;;1.45;0.40;;;;;;;25.44;53.14;102127.28;5015013;28;20467;-35
2022/07/14 09:18:42;;;;;;;2.72;0.40;;;;;;;25.41;53.72;102131.72;5014563;28;20461;-44
2022/07/14 09:21:21;;;;;;;1.65;0.35;;;;;;;25.45;53.35;102129.78;5014951;28;20213;-37
2022/07/14 09:23:49;;;;;;;1.88;0.43;;;;;;;25.37;53.08;102130.81;5015309;28;20542;-41
2022/07/14 09:26:18;;;;;;;2.03;0.50;;;;;;;25.34;53.30;102138.09;5014138;28;20056;-40
2022/07/14 09:28:48;;;;;;;1.88;0.40;;;;;;;25.36;52.92;102143.44;5015491;28;20041;-42
2022/07/14 09:31:22;;;;;;;2.17;0.30;;;;;;;25.39;54.08;102139.81;5014614;28;20046;-33
2022/07/14 09:33:51;;;;;;;2.17;0.35;;;;;;;25.47;53.75;102141.66;5014682;28;20061;-33
2022/07/14 09:36:30;;;;;;;2.08;0.47;;;;;;;25.48;52.75;102129.03;5014519;28;20157;-36
2022/07/14 09:39:00;;;;;;;2.28;0.40;;;;;;;25.32;52.06;102129.06;5014334;28;20071;-36
2022/07/14 09:41:29;;;;;;;2.15;0.50;;;;;;;25.13;52.19;102123.25;5014650;28;20052;-35
2022/07/14 09:44:11;;;;;;;2.47;0.40;;;;;;;25.16;51.95;102121.69;5014794;28;20050;-34
2022/07/14 09:46:54;;;;;;;2.28;0.43;;;;;;;25.21;52.13;102121.38;5013528;28;20069;-41
2022/07/14 09:49:24;;;;;;;2.83;0.52;;;;;;;25.29;53.61;102126.94;5015051;28;20050;-34
2022/07/14 09:52:06;;;;;;;2.25;0.50;;;;;;;25.44;53.68;102133.81;5014505;28;20060;-43
2022/07/14 09:54:46;;;;;;;1.48;0.45;;;;;;;25.52;53.34;102135.69;5014059;28;20106;-41
2022/07/14 09:57:26;;;;;;;1.63;0.40;;;;;;;25.59;52.92;102143.56;5013905;28;20129;-38
2022/07/14 09:59:56;;;;;;;2.00;0.40;;;;;;;25.68;53.06;102138.53;5014760;28;20053;-41
2022/07/14 10:02:28;;;;;;;1.88;0.45;;;;;;;25.79;52.24;102144.50;5013925;28;20064;-39
2022/07/14 10:04:58;;;;;;;;;;;;;;;25.71;50.26;102137.78;5015063;28;20111;-40
2022/07/14 10:07:29;;;;;;;1.45;0.40;;;;;;;25.61;52.52;102139.16;5013242;28;19925;-34
2022/07/14 10:10:04;;;;;;;1.58;0.40;;;;;;;25.69;52.17;102137.34;5014747;28;20045;-34
2022/07/14 10:12:33;;;;;;;1.92;0.40;;;;;;;25.62;51.73;102137.13;5014215;28;20053;-36
2022/07/14 10:15:03;;;;;;;2.53;0.45;;;;;;;25.49;52.26;102145.00;5013853;28;20050;-34
2022/07/14 10:17:32;;;;;;;2.13;0.30;;;;;;;25.44;53.08;102150.16;5014397;28;20513;-37
2022/07/14 10:20:01;;;;;;;1.67;0.40;;;;;;;25.46;53.31;102151.44;5014198;28;20121;-37
2022/07/14 10:22:30;;;;;;;1.15;0.30;;;;;;;25.41;52.52;102148.84;5003627;28;20046;-36
2022/07/14 10:24:58;;;;;;;1.42;0.30;;;;;;;25.31;53.37;102155.13;5003717;28;20513;-39
2022/07/14 10:27:27;;;;;;;4.20;0.70;;;;;;;25.32;53.30;102146.19;5013862;28;20038;-35
2022/07/14 10:29:57;;;;;;;2.45;0.50;;;;;;;25.36;53.10;102147.13;5013403;28;20054;-35
2022/07/14 10:32:36;;;;;;;1.90;0.40;;;;;;;25.34;52.27;102145.84;5013443;28;20618;-36
2022/07/14 10:35:19;;;;;;;2.60;0.40;;;;;;;25.31;53.01;102150.25;5014237;28;20061;-38
2022/07/14 10:38:02;;;;;;;2.60;0.60;;;;;;;25.26;52.08;102144.81;5013645;28;20137;-37
2022/07/14 10:40:38;;;;;;;1.67;0.40;;;;;;;25.24;52.57;102141.47;5003503;28;20085;-43
2022/07/14 10:43:08;;;;;;;1.88;0.30;;;;;;;25.22;53.09;102146.72;5012805;28;20060;-38
2022/07/14 10:45:48;;;;;;;2.90;0.50;;;;;;;25.23;52.67;102144.72;5003489;28;20046;-37
2022/07/14 10:48:34;;;;;;;3.78;0.40;;;;;;;25.23;52.40;102147.56;5013506;28;20473;-40
2022/07/14 10:51:27;;;;;;;4.28;0.47;;;;;;;25.22;52.01;102140.19;5004195;28;20514;-38
2022/07/14 10:54:02;;;;;;;1.35;0.30;;;;;;;25.13;52.59;102142.41;5003217;28;20414;-36
2022/07/14 10:56:50;;;;;;;2.95;0.40;;;;;;;25.03;53.24;102138.91;5012596;28;20057;-35
2022/07/14 10:59:40;;;;;;;1.52;0.43;;;;;;;25.08;52.00;102142.69;5013050;28;20084;-34
2022/07/14 11:02:34;;;;;;;1.58;0.25;;;;;;;25.10;52.19;102131.72;5010335;28;20123;-33
2022/07/14 11:05:11;;;;;;;1.77;0.50;;;;;;;25.19;52.03;102135.22;5008618;28;20046;-40
2022/07/14 11:07:43;;;;;;;2.47;0.50;;;;;;;25.40;51.92;102135.75;4994260;28;20153;-36
2022/07/14 11:10:30;;;;;;;;;;;;;;;25.64;52.54;102146.19;5013214;28;20077;-36
2022/07/14 11:13:11;;;;;;;1.98;0.30;;;;;;;25.86;51.13;102144.69;5010431;28;19921;-40
2022/07/14 11:15:39;;;;;;;;;;;;;;;25.91;49.89;102144.41;5011879;28;20056;-36
2022/07/14 11:18:29;;;;;;;1.75;0.30;;;;;;;26.04;50.97;102143.06;5012229;28;20341;-35
2022/07/14 11:21:01;;;;;;;1.95;0.50;;;;;;;26.21;50.37;102138.94;5012707;28;20045;-43
2022/07/14 11:23:52;;;;;;;2.15;0.38;;;;;;;26.48;50.96;102125.63;5012971;28;20046;-33
2022/07/14 11:26:36;;;;;;;1.52;0.50;;;;;;;26.82;47.79;102126.72;5011818;28;20464;-42
2022/07/14 11:29:16;;;;;;;1.02;0.30;;;;;;;27.15;48.40;102135.56;5012590;28;20473;-35
2022/07/14 11:31:45;;;;;;;2.35;0.40;;;;;;;27.47;46.95;102132.41;5008871;28;20072;-34
2022/07/14 11:37:06;;;;;;;1.92;0.40;;;;;;;28.22;46.50;102131.56;5010341;28;20069;-38
2022/07/14 11:39:54;;;;;;;1.35;0.30;;;;;;;28.61;45.36;102130.00;5011826;28;20069;-35
2022/07/14 11:42:22;;;;;;;1.27;0.20;;;;;;;28.68;43.68;102135.84;5012919;28;20129;-38
2022/07/14 11:44:55;;;;;;;2.13;0.50;;;;;;;28.90;42.86;102128.31;5012426;28;20384;-40
2022/07/14 11:47:25;;;;;;;2.65;0.38;;;;;;;29.10;42.39;102124.00;5012029;28;20479;-38
2022/07/14 11:50:01;;;;;;;1.10;0.30;;;;;;;29.50;40.07;102121.50;5012268;28;20133;-37